createdAt,value
2022-12-31T00:00:22.749Z,20.70
2022-12-31T00:02:52.862Z,20.60
2022-12-31T00:05:24.124Z,20.70
2022-12-31T00:07:54.149Z,20.80
2022-12-31T00:10:24.164Z,21.10
2022-12-31T00:12:54.176Z,21.20
2022-12-31T00:15:24.350Z,21.40
2022-12-31T00:17:54.332Z,21.50
2022-12-31T00:20:24.795Z,21.60
2022-12-31T00:22:54.801Z,21.60
2022-12-31T00:25:25.612Z,21.50
2022-12-31T00:27:57.262Z,21.50
2022-12-31T00:30:27.287Z,21.40
2022-12-31T00:32:57.312Z,21.50
2022-12-31T00:35:28.521Z,21.50
2022-12-31T00:37:58.512Z,21.50
2022-12-31T00:40:28.558Z,21.60
2022-12-31T00:42:58.593Z,21.70
2022-12-31T00:45:28.639Z,21.80
2022-12-31T00:47:58.702Z,22.00
2022-12-31T00:50:29.121Z,22.10
2022-12-31T00:52:59.130Z,22.20
2022-12-31T00:55:29.163Z,22.20
2022-12-31T00:57:59.185Z,22.20
2022-12-31T01:00:29.425Z,22.30
2022-12-31T01:02:59.570Z,22.30
2022-12-31T01:05:30.003Z,22.40
2022-12-31T01:08:00.154Z,22.50
2022-12-31T01:10:48.629Z,22.50
2022-12-31T01:13:18.618Z,22.60
2022-12-31T01:15:48.684Z,22.60
2022-12-31T01:18:19.139Z,22.60
2022-12-31T01:20:49.164Z,22.60
2022-12-31T01:23:19.165Z,22.50
2022-12-31T01:25:49.193Z,22.60
2022-12-31T01:28:19.579Z,22.60
2022-12-31T01:30:49.795Z,22.70
2022-12-31T01:33:19.875Z,22.70
2022-12-31T01:35:49.891Z,22.70
2022-12-31T01:38:19.896Z,22.70
2022-12-31T01:40:50.023Z,22.80
2022-12-31T01:43:22.239Z,23.00
2022-12-31T01:45:56.653Z,23.10
2022-12-31T01:48:30.079Z,23.30
2022-12-31T01:51:00.520Z,23.50
2022-12-31T01:53:30.968Z,23.50
2022-12-31T01:56:02.732Z,23.40
2022-12-31T01:58:40.937Z,23.40
2022-12-31T02:01:12.538Z,23.50
2022-12-31T02:03:43.422Z,23.50
2022-12-31T02:06:34.157Z,23.60
2022-12-31T02:09:04.263Z,23.60
2022-12-31T02:11:39.399Z,23.60
2022-12-31T02:14:25.413Z,23.70
2022-12-31T02:17:04.157Z,23.80
2022-12-31T02:19:34.152Z,24.00
2022-12-31T02:22:28.028Z,24.20
2022-12-31T02:25:34.570Z,24.20
2022-12-31T02:28:23.023Z,24.20
2022-12-31T02:31:01.800Z,24.20
2022-12-31T02:33:36.276Z,24.30
2022-12-31T02:36:13.883Z,24.30
2022-12-31T02:38:47.040Z,24.50
2022-12-31T02:41:38.957Z,24.90
2022-12-31T02:44:25.989Z,25.20
2022-12-31T02:47:06.492Z,25.60
2022-12-31T02:49:51.880Z,25.50
2022-12-31T02:52:47.319Z,25.50
2022-12-31T02:55:26.630Z,25.40
2022-12-31T02:58:03.513Z,25.30
2022-12-31T03:00:53.787Z,25.10
2022-12-31T03:03:24.595Z,25.10
2022-12-31T03:05:55.019Z,25.00
2022-12-31T03:08:26.987Z,25.00
2022-12-31T03:10:58.623Z,24.90
2022-12-31T03:13:29.850Z,24.80
2022-12-31T03:16:00.012Z,24.90
2022-12-31T03:18:59.265Z,25.00
2022-12-31T03:21:47.034Z,25.00
2022-12-31T03:24:34.938Z,24.90
2022-12-31T03:27:04.957Z,24.80
2022-12-31T03:29:34.948Z,24.80
2022-12-31T03:32:05.201Z,25.10
2022-12-31T03:34:35.190Z,25.50
2022-12-31T03:37:05.250Z,25.80
2022-12-31T03:39:35.230Z,25.80
2022-12-31T03:42:05.551Z,25.80
2022-12-31T03:44:35.531Z,25.70
2022-12-31T03:47:05.716Z,25.50
2022-12-31T03:49:35.762Z,25.30
2022-12-31T03:52:08.108Z,25.30
2022-12-31T03:54:38.090Z,25.30
2022-12-31T03:57:09.285Z,25.20
2022-12-31T03:59:40.380Z,25.20
2022-12-31T04:02:10.871Z,25.10
2022-12-31T04:04:42.052Z,25.00
2022-12-31T04:07:12.086Z,25.00
2022-12-31T04:09:42.070Z,25.00
2022-12-31T04:12:12.430Z,24.90
2022-12-31T04:14:42.481Z,24.90
2022-12-31T04:17:12.481Z,25.00
2022-12-31T04:19:42.483Z,25.00
2022-12-31T04:22:12.561Z,25.00
2022-12-31T04:24:44.728Z,25.10
2022-12-31T04:27:16.874Z,25.20
2022-12-31T04:29:46.948Z,25.20
2022-12-31T04:32:17.113Z,25.20
2022-12-31T04:34:47.117Z,25.10
2022-12-31T04:37:17.121Z,25.10
2022-12-31T04:39:47.087Z,25.00
2022-12-31T04:42:17.108Z,24.90
2022-12-31T04:44:47.100Z,24.80
2022-12-31T04:47:21.827Z,24.80
2022-12-31T04:49:53.771Z,24.80
2022-12-31T04:52:24.031Z,24.70
2022-12-31T04:54:54.066Z,24.70
2022-12-31T04:57:25.406Z,24.60
2022-12-31T04:59:56.455Z,24.50
2022-12-31T05:02:26.650Z,24.40
2022-12-31T05:04:56.788Z,24.30
2022-12-31T05:07:26.798Z,24.30
2022-12-31T05:09:56.793Z,24.30
2022-12-31T05:12:26.820Z,24.30
2022-12-31T05:14:56.817Z,24.30
2022-12-31T05:17:27.031Z,24.30
2022-12-31T05:19:57.090Z,24.40
2022-12-31T05:22:32.945Z,24.40
2022-12-31T05:25:03.948Z,24.40
2022-12-31T05:27:34.042Z,24.50
2022-12-31T05:30:04.098Z,24.60
2022-12-31T05:32:34.717Z,24.80
2022-12-31T05:35:05.294Z,24.80
2022-12-31T05:37:35.786Z,24.90
2022-12-31T05:40:06.840Z,25.00
2022-12-31T05:42:37.148Z,25.10
2022-12-31T05:45:07.711Z,25.10
2022-12-31T05:47:37.850Z,25.10
2022-12-31T05:50:09.290Z,25.20
2022-12-31T05:52:41.550Z,25.20
2022-12-31T05:55:16.269Z,25.40
2022-12-31T05:57:46.310Z,25.50
2022-12-31T06:00:17.099Z,25.60
2022-12-31T06:02:47.230Z,25.60
2022-12-31T06:05:21.050Z,25.50
2022-12-31T06:07:56.013Z,25.40
2022-12-31T06:10:25.994Z,25.40
2022-12-31T06:12:56.059Z,25.40
2022-12-31T06:15:26.083Z,25.30
2022-12-31T06:17:56.111Z,25.50
2022-12-31T06:20:26.173Z,25.70
2022-12-31T06:22:56.261Z,26.00
2022-12-31T06:25:26.316Z,26.20
2022-12-31T06:51:37.976Z,26.20
2022-12-31T06:54:08.151Z,26.20
2022-12-31T06:56:38.804Z,26.30
2022-12-31T06:59:09.051Z,26.30
2022-12-31T07:02:15.470Z,26.40
2022-12-31T07:05:19.651Z,26.50
2022-12-31T07:08:14.746Z,26.50
2022-12-31T07:11:01.720Z,26.70
2022-12-31T07:14:01.797Z,26.70
2022-12-31T07:17:04.735Z,26.70
2022-12-31T07:19:59.420Z,26.50
2022-12-31T07:22:30.953Z,26.60
2022-12-31T07:25:01.417Z,26.60
2022-12-31T07:28:05.003Z,26.60
2022-12-31T07:30:44.164Z,26.70
2022-12-31T07:33:29.096Z,26.70
2022-12-31T07:36:30.796Z,26.70
2022-12-31T07:39:21.568Z,26.80
2022-12-31T07:42:11.586Z,26.80
2022-12-31T07:45:10.506Z,26.70
2022-12-31T07:47:41.614Z,26.70
2022-12-31T07:50:21.952Z,26.70
2022-12-31T07:52:52.206Z,26.60
2022-12-31T07:55:22.211Z,26.60
2022-12-31T07:58:01.849Z,26.60
2022-12-31T08:00:33.236Z,26.50
2022-12-31T08:03:42.138Z,26.50
2022-12-31T08:06:35.928Z,26.40
2022-12-31T08:09:41.557Z,26.40
2022-12-31T08:12:11.812Z,26.30
2022-12-31T08:14:51.600Z,26.20
2022-12-31T08:17:22.493Z,26.00
2022-12-31T08:19:52.926Z,25.90
2022-12-31T11:07:53.534Z,21.00
2022-12-31T11:13:29.933Z,20.90
2022-12-31T11:16:15.017Z,20.90
2022-12-31T11:19:04.160Z,20.80
2022-12-31T11:21:41.786Z,20.80
2022-12-31T11:24:57.154Z,20.80
2022-12-31T11:28:08.209Z,20.80
2022-12-31T11:30:50.403Z,20.80
2022-12-31T11:33:56.987Z,20.80
2022-12-31T11:37:12.357Z,20.80
2022-12-31T11:40:24.084Z,20.80
2022-12-31T11:43:07.839Z,20.80
2022-12-31T11:45:53.926Z,20.80
2022-12-31T11:48:33.224Z,20.80
2022-12-31T11:51:15.115Z,20.80
2022-12-31T11:53:45.240Z,20.80
2022-12-31T11:56:22.325Z,20.80
2022-12-31T11:58:56.178Z,20.70
2022-12-31T12:01:35.131Z,20.70
2022-12-31T12:04:05.657Z,20.70
2022-12-31T13:24:42.194Z,19.90
2022-12-31T13:27:37.323Z,19.90
2022-12-31T13:30:15.763Z,19.90
2022-12-31T13:32:46.891Z,19.90
2022-12-31T13:35:35.081Z,19.90
2022-12-31T13:38:12.140Z,19.80
2022-12-31T13:40:41.863Z,19.80
2022-12-31T13:43:18.806Z,19.80
2022-12-31T13:45:50.096Z,19.80
2022-12-31T13:48:22.105Z,19.70
2022-12-31T13:51:02.146Z,19.80
2022-12-31T13:53:37.351Z,19.70
2022-12-31T13:56:11.710Z,19.70
2022-12-31T13:59:02.448Z,19.70
2022-12-31T14:02:07.334Z,19.70
2022-12-31T14:04:39.675Z,19.70
2022-12-31T14:07:12.951Z,19.70
2022-12-31T14:09:42.389Z,19.70
2022-12-31T14:12:19.527Z,19.70
2022-12-31T14:14:48.927Z,19.70
2022-12-31T14:17:22.029Z,19.60
2022-12-31T14:20:03.442Z,19.60
2022-12-31T14:22:44.771Z,19.60
2022-12-31T14:38:16.819Z,19.50
2022-12-31T14:40:55.789Z,19.50
2022-12-31T14:43:28.060Z,19.50
2022-12-31T14:46:13.009Z,19.50
2022-12-31T14:49:01.019Z,19.50
2022-12-31T14:51:33.653Z,19.50
2022-12-31T14:54:03.887Z,19.50
2022-12-31T14:56:53.575Z,19.50
2022-12-31T14:59:32.200Z,19.40
2022-12-31T15:02:03.914Z,19.40
2022-12-31T15:04:44.808Z,19.40
2022-12-31T15:07:43.411Z,19.40
2022-12-31T15:10:20.795Z,19.50
2022-12-31T15:12:59.029Z,19.40
2022-12-31T15:15:37.873Z,19.40
2022-12-31T15:18:07.579Z,19.40
2022-12-31T15:20:44.297Z,19.40
2022-12-31T15:23:22.614Z,19.40
2022-12-31T15:25:55.416Z,19.40
2022-12-31T15:28:36.437Z,19.40
2022-12-31T15:31:19.923Z,19.40
2022-12-31T15:34:07.156Z,19.40
2022-12-31T15:36:37.779Z,19.40
2022-12-31T15:39:07.191Z,19.30
2022-12-31T15:42:03.099Z,19.30
2022-12-31T15:44:51.167Z,19.30
2022-12-31T15:47:23.294Z,19.30
2022-12-31T15:49:53.009Z,19.30
2022-12-31T15:52:32.593Z,19.30
2022-12-31T15:55:02.487Z,19.30
2022-12-31T15:57:34.971Z,19.30
2022-12-31T16:00:08.956Z,19.30
2022-12-31T16:02:41.199Z,19.30
2022-12-31T16:05:30.600Z,19.30
2022-12-31T16:08:00.970Z,19.30
2022-12-31T16:10:31.887Z,19.30
2022-12-31T16:13:01.914Z,19.30
2022-12-31T16:15:32.895Z,19.30
2022-12-31T16:18:08.079Z,19.30
2022-12-31T16:20:43.094Z,19.30
2022-12-31T16:23:23.941Z,19.30
2022-12-31T16:26:00.350Z,19.30
2022-12-31T16:28:34.744Z,19.30
2022-12-31T16:31:06.167Z,19.30
2022-12-31T16:33:36.419Z,19.30
2022-12-31T18:10:00.297Z,18.80
2022-12-31T18:12:30.079Z,18.80
2022-12-31T18:14:59.619Z,18.80
2022-12-31T18:17:30.308Z,18.80
2022-12-31T18:20:06.884Z,18.80
2022-12-31T18:22:36.813Z,18.80
2022-12-31T18:25:08.424Z,18.80
2022-12-31T18:27:37.900Z,18.80
2022-12-31T18:30:08.529Z,18.80
2022-12-31T18:32:39.587Z,18.80
2022-12-31T18:35:33.372Z,18.80
2022-12-31T18:38:04.383Z,18.80
2022-12-31T18:40:34.665Z,18.80
2022-12-31T18:43:05.306Z,18.80
2022-12-31T18:45:35.249Z,18.80
2022-12-31T18:48:05.681Z,18.80
2022-12-31T18:50:35.588Z,18.90
2022-12-31T18:53:05.002Z,18.90
2022-12-31T18:55:45.156Z,18.90
2022-12-31T18:58:15.010Z,18.90
2022-12-31T19:00:45.231Z,18.80
2022-12-31T19:03:18.801Z,18.80
2022-12-31T19:05:52.292Z,18.90
2022-12-31T19:08:22.554Z,18.80
2022-12-31T19:28:24.841Z,18.80
2022-12-31T19:30:54.636Z,18.80
2022-12-31T19:33:24.100Z,18.90
2022-12-31T19:35:53.493Z,18.80
2022-12-31T19:38:26.913Z,18.80
2022-12-31T19:40:56.898Z,18.90
2022-12-31T19:43:26.301Z,18.80
2022-12-31T19:45:56.117Z,18.80
2022-12-31T19:48:32.616Z,18.80
2022-12-31T19:51:02.343Z,18.80
2022-12-31T19:53:31.900Z,18.80
2022-12-31T19:56:01.226Z,18.80
2022-12-31T19:58:30.590Z,18.90
2022-12-31T20:01:03.353Z,18.90
2022-12-31T20:03:34.120Z,18.90
2022-12-31T20:06:10.915Z,19.00
2022-12-31T20:08:41.005Z,18.90
2022-12-31T20:11:11.564Z,19.00
2022-12-31T20:13:41.705Z,19.00
2022-12-31T20:16:15.403Z,19.00
2022-12-31T20:18:45.589Z,19.00
2022-12-31T20:21:21.910Z,19.10
2022-12-31T20:23:53.027Z,19.10
2022-12-31T20:26:24.915Z,19.10
2022-12-31T20:31:41.253Z,19.20
2022-12-31T20:34:11.812Z,19.20
2022-12-31T20:36:41.571Z,19.20
2022-12-31T20:39:10.912Z,19.30
2022-12-31T20:41:40.372Z,19.30
2022-12-31T20:44:09.819Z,19.30
2022-12-31T20:46:39.329Z,19.30
2022-12-31T20:49:08.861Z,19.30
2022-12-31T20:51:38.829Z,19.30
2022-12-31T20:54:09.591Z,19.30
2022-12-31T20:56:40.358Z,19.40
2022-12-31T20:59:10.526Z,19.40
2022-12-31T21:02:19.526Z,19.40
2022-12-31T21:04:30.294Z,19.40
2022-12-31T21:07:00.161Z,19.50
2022-12-31T21:09:29.547Z,19.50
2022-12-31T21:12:17.105Z,19.50
2022-12-31T21:14:46.528Z,19.50
2022-12-31T21:17:15.919Z,19.50
2022-12-31T21:19:45.485Z,19.60
2022-12-31T21:22:15.984Z,19.60
2022-12-31T21:24:45.384Z,19.60
2022-12-31T21:27:14.985Z,19.70
2022-12-31T21:30:16.308Z,19.70
2022-12-31T21:38:09.707Z,19.80
2022-12-31T21:40:39.278Z,19.90
2022-12-31T21:43:09.160Z,19.90
2022-12-31T21:45:38.612Z,20.00
2022-12-31T21:48:24.981Z,20.00
2022-12-31T21:50:55.467Z,20.10
2022-12-31T21:53:34.207Z,20.20
2022-12-31T21:56:17.659Z,20.20
2022-12-31T21:58:48.401Z,20.30
2022-12-31T22:01:40.671Z,20.40
2022-12-31T22:04:28.105Z,20.50
2022-12-31T22:06:59.516Z,20.50
2022-12-31T22:09:29.049Z,20.70
2022-12-31T22:11:58.498Z,20.80
2022-12-31T22:14:27.826Z,20.80
2022-12-31T22:16:57.308Z,20.90
2022-12-31T22:19:27.591Z,20.90
2022-12-31T22:21:57.089Z,20.90
2022-12-31T22:24:26.451Z,21.00
2022-12-31T22:26:57.819Z,21.00
2022-12-31T22:29:29.079Z,21.00
2022-12-31T22:32:01.272Z,21.00
2022-12-31T22:34:30.902Z,21.00
2022-12-31T22:37:20.075Z,21.10
2022-12-31T22:39:55.638Z,21.10
2022-12-31T22:42:28.091Z,21.10
2022-12-31T22:44:57.434Z,21.10
2022-12-31T22:47:27.184Z,21.00
2022-12-31T22:49:56.567Z,21.10
2022-12-31T22:52:27.195Z,21.10
2022-12-31T22:54:56.774Z,21.10
2022-12-31T22:57:26.751Z,21.10
2022-12-31T22:59:56.143Z,21.20
2022-12-31T23:02:26.807Z,21.20
2022-12-31T23:05:15.201Z,21.20
2022-12-31T23:07:45.957Z,21.20
2022-12-31T23:10:33.069Z,21.30
2022-12-31T23:13:22.143Z,21.20
2022-12-31T23:16:10.704Z,21.20
2022-12-31T23:52:42.179Z,21.90
2022-12-31T23:55:11.691Z,22.00
2022-12-31T23:57:41.413Z,22.20
